• Join FlightAware (Why Join?)
  • Login
  • US Flag 
10:46PM EDT


 

Airport Tracker/Info


-or-


 

Live Flight TrackerFlight Track Log ✈ UAL316 ✈ 10-May-2012 ✈ KDEN - KCMH

Flight Track Log - Related Links

Times and Time Zones

All times are in EDT time to prevent confusion due to time zone crossing. See the UAL316 flight status page for this flight to view local times or setup timezone preferences in your user account.

Time Position Orientation Groundspeed Altitude Reporting Facility
EDT Latitude Longitude Course Direction KTS MPH feet Rate Location/Type
07:50PM 39.8138 -104.4932 264° West  Level FlightAware Approximate
07:50PM 39.8000 -104.6500 109° East 167 192 7,100  Level Denver TRACON
07:55PM 39.7042 -104.2817 67° East 371 427 17,700 2,220 Climbing Denver Center
07:56PM 39.7358 -104.1861 67° East 338 389 19,800 1,500 Climbing Denver Center
07:57PM 39.7750 -104.0686 66° East 334 384 20,800 1,260 Climbing Denver Center
07:58PM 39.8200 -103.9344 67° East 373 429 22,400 1,740 Climbing Denver Center
07:59PM 39.8650 -103.7950 77° East 408 470 24,300 2,100 Climbing Denver Center
08:00PM 39.8906 -103.6506 85° East 408 470 26,600 1,800 Climbing Denver Center
08:01PM 39.9014 -103.5011 84° East 414 476 27,900 1,200 Climbing Denver Center
08:02PM 39.9139 -103.3436 84° East 431 496 29,100 1,200 Climbing Denver Center
08:03PM 39.9278 -103.1667 86° East 437 503 30,400 1,320 Climbing Denver Center
08:04PM 39.9356 -103.0011 83° East 448 516 31,800 1,380 Climbing Denver Center
08:05PM 39.9511 -102.8325 87° East 458 527 33,200 1,320 Climbing Denver Center
08:06PM 39.9583 -102.6667 86° East 465 535 34,500 900 Climbing Denver Center
08:07PM 39.9672 -102.5008 84° East 465 535 35,000 240 Climbing Denver Center
08:08PM 39.9803 -102.3347 86° East 465 535 35,000  Level Denver Center
08:09PM 39.9892 -102.1853 86° East 460 529 35,000 180 Level Denver Center
08:10PM 39.9989 -102.0000 86° East 461 531 35,400 780 Climbing Denver Center
08:11PM 40.0089 -101.8314 85° East 466 536 36,600 780 Climbing Denver Center
08:12PM 40.0189 -101.6653 86° East 461 531 37,000 180 Climbing Denver Center
08:13PM 40.0267 -101.5072 85° East 474 545 37,000  Level Denver Center
08:14PM 40.0392 -101.3164 85° East 481 554 37,000  Level Denver Center
08:15PM 40.0500 -101.1444 87° East 481 554 37,000  Level Denver Center
08:16PM 40.0572 -100.9867 87° East 481 554 37,000  Level Denver Center
08:17PM 40.0633 -100.8097 86° East 481 554 37,000 240 Level Denver Center
08:18PM 40.0744 -100.6186 87° East 487 560 37,500 660 Climbing Denver Center
08:19PM 40.0822 -100.4442 85° East 487 560 38,400 720 Climbing Denver Center
08:20PM 40.0928 -100.2883 87° East 482 555 39,000 300 Climbing Denver Center
08:21PM 40.1011 -100.1000 87° East 482 555 39,000  Level Denver Center
08:22PM 40.1081 -99.9256 88° East 477 549 39,000  Level Denver Center
08:24PM 40.1178 -99.5378 87° East 470 541 39,000  Level Minneapolis Center
08:25PM 40.1250 -99.3703 87° East 465 535 39,000  Level Minneapolis Center
08:26PM 40.1317 -99.2058 88° East 459 528 39,000  Level Minneapolis Center
08:27PM 40.1364 -99.0408 87° East 459 528 39,000  Level Minneapolis Center
08:28PM 40.1425 -98.8758 87° East 459 528 39,000  Level Minneapolis Center
08:29PM 40.1486 -98.7111 87° East 459 528 39,000  Level Minneapolis Center
08:30PM 40.1544 -98.5461 87° East 459 528 39,000  Level Minneapolis Center
08:31PM 40.1600 -98.3839 89° East 459 528 39,000  Level Minneapolis Center
08:32PM 40.1628 -98.2269 88° East 454 522 39,000  Level Minneapolis Center
08:33PM 40.1678 -98.0647 88° East 449 517 39,000  Level Minneapolis Center
08:34PM 40.1725 -97.8994 88° East 449 517 39,000  Level Minneapolis Center
08:35PM 40.1769 -97.7372 89° East 449 517 39,000  Level Minneapolis Center
08:36PM 40.1792 -97.5775 87° East 443 510 39,000  Level Minneapolis Center
08:37PM 40.1853 -97.4125 89° East 443 510 39,000  Level Minneapolis Center
08:39PM 40.1906 -97.1078 89° East 444 511 39,000  Level Kansas City Center
08:40PM 40.1917 -96.9475 89° East 444 511 39,000  Level Kansas City Center
08:41PM 40.1947 -96.7875 88° East 444 511 39,000  Level Kansas City Center
08:42PM 40.1981 -96.6192 90° East 444 511 39,000  Level Kansas City Center
08:43PM 40.1986 -96.4561 89° East 444 511 39,000  Level Kansas City Center
08:44PM 40.2008 -96.3094 90° East 444 511 39,000  Level Kansas City Center
08:45PM 40.2014 -96.1303 90° East 444 511 39,000  Level Kansas City Center
08:46PM 40.2014 -95.9728 90° East 439 505 39,000  Level Kansas City Center
08:47PM 40.2008 -95.8233 91° East 445 512 39,000  Level Kansas City Center
08:48PM 40.1983 -95.6631 90° East 438 504 39,000  Level Kansas City Center
08:49PM 40.1978 -95.4892 91° East 438 504 39,000  Level Kansas City Center
08:50PM 40.1950 -95.3261 90° East 438 504 39,000  Level Kansas City Center
08:51PM 40.1958 -95.1794 93° East 443 510 39,000  Level Kansas City Center
08:52PM 40.1903 -95.0219 91° East 438 504 39,000  Level Kansas City Center
08:53PM 40.1889 -94.8428 91° East 438 504 39,000  Level Kansas City Center
08:54PM 40.1872 -94.6825 91° East 446 513 39,000  Level Kansas City Center
08:55PM 40.1853 -94.5194 93° East 446 513 39,000  Level Kansas City Center
08:56PM 40.1789 -94.3703 91° East 440 506 39,000  Level Kansas City Center
08:57PM 40.1764 -94.1964 90° East 440 506 39,000  Level Kansas City Center
08:58PM 40.1761 -94.0553 92° East 440 506 39,000  Level Kansas City Center
08:59PM 40.1711 -93.8897 92° East 440 506 39,000  Level Kansas City Center
09:00PM 40.1661 -93.7267 91° East 440 506 39,000  Level Kansas City Center
09:01PM 40.1628 -93.5611 93° East 440 506 39,000  Level Kansas City Center
09:02PM 40.1572 -93.3983 93° East 440 506 39,000  Level Kansas City Center
09:03PM 40.1514 -93.2331 91° East 440 506 39,000  Level Kansas City Center
09:04PM 40.1494 -93.0728 92° East 445 512 39,000  Level Kansas City Center
09:05PM 40.1431 -92.8858 92° East 451 519 39,000  Level Kansas City Center
09:06PM 40.1386 -92.7256 93° East 451 519 39,000  Level Kansas City Center
09:07PM 40.1319 -92.5603 98° East 451 519 39,000  Level Kansas City Center
09:08PM 40.1169 -92.4142 96° East 451 519 39,000  Level Kansas City Center
09:09PM 40.1011 -92.2331 97° East 451 519 39,000  Level Kansas City Center
09:10PM 40.0856 -92.0708 96° East 451 519 39,000  Level Kansas City Center
09:11PM 40.0717 -91.9086 97° East 451 519 39,000  Level Kansas City Center
09:12PM 40.0556 -91.7464 97° East 451 519 39,000  Level Kansas City Center
09:13PM 40.0392 -91.5817 98° East 451 519 39,000  Level Kansas City Center
09:14PM 40.0225 -91.4200 96° East 451 519 39,000  Level Kansas City Center
09:15PM 40.0103 -91.2686 99° East 456 525 39,000  Level Kansas City Center
09:16PM 39.9911 -91.1044 98° East 456 525 39,000  Level Kansas City Center
09:17PM 39.9714 -90.9294 97° East 456 525 39,000  Level Kansas City Center
09:18PM 39.9561 -90.7650 98° East 450 518 39,000  Level Kansas City Center
09:19PM 39.9383 -90.6033 97° East 450 518 39,000  Level Kansas City Center
09:20PM 39.9225 -90.4419 99° East 450 518 39,000  Level Kansas City Center
09:21PM 39.9022 -90.2781 97° East 450 518 39,000  Level Kansas City Center
09:22PM 39.8861 -90.1142 99° East 450 518 39,000  Level Kansas City Center
09:23PM 39.8675 -89.9531 98° East 450 518 39,000  Level Kansas City Center
09:24PM 39.8486 -89.7892 96° East 450 518 39,000  Level Kansas City Center
09:25PM 39.8358 -89.6253 88° East 450 518 39,000  Level Kansas City Center
09:26PM 39.8394 -89.4600 90° East 450 518 39,000  Level Kansas City Center
09:27PM 39.8386 -89.2925 90° East 456 525 39,000  Level Kansas City Center
09:28PM 39.8394 -89.1250 90° East 462 532 39,000  Level Kansas City Center
09:29PM 39.8403 -88.9600 92° East 462 532 39,000  Level Kansas City Center
09:31PM 39.8325 -88.7053 89° East 475 547 39,000  Level Indianapolis Center
09:32PM 39.8342 -88.5214 89° East 460 529 39,000  Level Indianapolis Center
09:33PM 39.8367 -88.3592 91° East 460 529 39,000  Level Indianapolis Center
09:34PM 39.8350 -88.1914 91° East 460 529 39,000  Level Indianapolis Center
09:35PM 39.8333 -88.0236 90° East 460 529 39,000  Level Indianapolis Center
09:36PM 39.8333 -87.8558 90° East 465 535 39,000  Level Indianapolis Center
09:37PM 39.8331 -87.6828 91° East 465 535 39,000  Level Indianapolis Center
09:38PM 39.8306 -87.5150 90° East 465 535 39,000  Level Indianapolis Center
09:39PM 39.8297 -87.3447 91° East 465 535 39,000  Level Indianapolis Center
09:40PM 39.8267 -87.1797 91° East 457 526 39,000  Level Indianapolis Center
09:41PM 39.8250 -87.0281 91° East 462 532 39,000  Level Indianapolis Center
09:42PM 39.8233 -86.8631 92° East 462 532 39,000  Level Indianapolis Center
09:43PM 39.8197 -86.6981 91° East 462 532 39,000  Level Indianapolis Center
09:44PM 39.8175 -86.5358 86° East 455 524 39,000 -360 Level Indianapolis Center
09:45PM 39.8256 -86.3847 74° East 455 524 38,300 -960 Descending Indianapolis Center
09:46PM 39.8744 -86.1594 76° East 455 524 36,900 -1,200 Descending Indianapolis Center
09:47PM 39.9028 -86.0061 75° East 448 516 35,900 -1,380 Descending Indianapolis Center
09:48PM 39.9350 -85.8503 76° East 448 516 34,200 -1,980 Descending Indianapolis Center
09:49PM 39.9650 -85.6942 75° East 448 516 32,000 -2,160 Descending Indianapolis Center
09:50PM 39.9969 -85.5406 74° East 443 510 29,900 -1,500 Descending Indianapolis Center
09:51PM 40.0283 -85.3925 85° East 431 496 29,000 -480 Descending Indianapolis Center
09:52PM 40.0392 -85.2381 79° East 431 496 29,000  Level Indianapolis Center
09:53PM 40.0619 -85.0867 77° East 426 490 29,000 -660 Level Indianapolis Center
09:54PM 40.0844 -84.9597 79° East 416 479 27,700 -1,680 Descending Indianapolis Center
09:55PM 40.1047 -84.8164 77° East 411 473 25,700 -1,980 Descending Indianapolis Center
09:56PM 40.1292 -84.6783 77° East 398 458 23,800 -1,620 Descending Indianapolis Center
09:57PM 40.1531 -84.5456 78° East 381 438 22,500 -1,260 Descending Indianapolis Center
09:58PM 40.1728 -84.4208 77° East 367 422 21,300 -1,200 Descending Indianapolis Center
09:59PM 40.1947 -84.2908 77° East 362 417 20,200 -1,140 Descending Indianapolis Center
10:00PM 40.2161 -84.1686 78° East 349 402 19,100 -1,140 Descending Indianapolis Center
10:01PM 40.2375 -84.0328 78° East 349 402 18,000 -1,080 Descending Indianapolis Center
10:02PM 40.2567 -83.9106 78° East 344 396 17,000 -1,440 Descending Indianapolis Center
10:03PM 40.2758 -83.7936 78° East 332 382 15,200 -1,680 Descending Indianapolis Center
10:04PM 40.2947 -83.6767 77° East 327 376 13,700 -1,560 Descending Indianapolis Center
10:04PM 40.3053 -83.6142 79° East 319 367 12,700 -1,620 Descending Indianapolis Center
10:05PM 40.3197 -83.5133 83° East 311 358 11,300 -900 Descending Indianapolis Center
10:06PM 40.3303 -83.4072 126° Southeast 305 351 11,000 -660 Descending Indianapolis Center
10:07PM 40.2800 -83.3175 122° Southeast 304 350 10,000 -840 Descending Indianapolis Center
10:08PM 40.2403 -83.2333 117° Southeast 284 327 9,500 -900 Descending Indianapolis Center
10:09PM 40.2214 -83.1844 118° Southeast 304 350 8,700 -1,500 Descending Indianapolis Center
10:10PM 40.1833 -83.0925 117° Southeast 296 341 7,200 -1,200 Descending Indianapolis Center
10:11PM 40.1497 -83.0058 123° Southeast 278 320 6,400 -1,020 Descending Indianapolis Center
10:11PM 40.1244 -82.9544 115° Southeast 256 295 5,600 -1,080 Descending Indianapolis Center
10:12PM 40.0969 -82.8758 108° East 233 268 4,700 -900 Descending Indianapolis Center
10:13PM 40.0797 -82.8056 130° Southeast 205 236 3,800 -720 Descending Indianapolis Center
10:14PM 40.0483 -82.7569 186° South 171 197 3,300 -660 Descending Indianapolis Center
10:16PM 40.0067 -82.7631 186° South 154 177 2,400 -840 Descending Indianapolis Center